sensor_id;sensor_type;location;lat;lon;timestamp;P1;durP1;ratioP1;P2;durP2;ratioP2
14890;SDS011;7537;48.014;11.590;2023-08-30T00:04:11;11.29;;;9.84;;
14890;SDS011;7537;48.014;11.590;2023-08-30T00:09:38;11.64;;;10.00;;
14890;SDS011;7537;48.014;11.590;2023-08-30T00:15:07;12.12;;;10.27;;
14890;SDS011;7537;48.014;11.590;2023-08-30T00:20:40;10.19;;;9.64;;
14890;SDS011;7537;48.014;11.590;2023-08-30T00:26:08;10.74;;;9.53;;
14890;SDS011;7537;48.014;11.590;2023-08-30T00:31:35;15.27;;;11.35;;
14890;SDS011;7537;48.014;11.590;2023-08-30T00:37:03;11.47;;;11.24;;
14890;SDS011;7537;48.014;11.590;2023-08-30T00:42:30;12.54;;;10.83;;
14890;SDS011;7537;48.014;11.590;2023-08-30T00:47:58;12.06;;;11.00;;
14890;SDS011;7537;48.014;11.590;2023-08-30T00:53:25;12.86;;;10.98;;
14890;SDS011;7537;48.014;11.590;2023-08-30T00:58:56;13.10;;;11.17;;
14890;SDS011;7537;48.014;11.590;2023-08-30T01:04:23;9.79;;;9.68;;
14890;SDS011;7537;48.014;11.590;2023-08-30T01:09:54;11.39;;;10.01;;
14890;SDS011;7537;48.014;11.590;2023-08-30T01:15:26;10.69;;;10.51;;
14890;SDS011;7537;48.014;11.590;2023-08-30T01:20:54;10.98;;;7.90;;
14890;SDS011;7537;48.014;11.590;2023-08-30T01:26:24;9.95;;;9.23;;
14890;SDS011;7537;48.014;11.590;2023-08-30T01:31:53;9.49;;;9.36;;
14890;SDS011;7537;48.014;11.590;2023-08-30T01:37:21;11.86;;;10.79;;
14890;SDS011;7537;48.014;11.590;2023-08-30T01:42:59;14.96;;;9.24;;
14890;SDS011;7537;48.014;11.590;2023-08-30T01:48:27;10.95;;;8.69;;
14890;SDS011;7537;48.014;11.590;2023-08-30T01:53:56;11.14;;;9.06;;
14890;SDS011;7537;48.014;11.590;2023-08-30T01:59:30;8.68;;;8.29;;
14890;SDS011;7537;48.014;11.590;2023-08-30T02:05:00;8.42;;;7.85;;
14890;SDS011;7537;48.014;11.590;2023-08-30T02:10:28;13.35;;;8.93;;
14890;SDS011;7537;48.014;11.590;2023-08-30T02:15:58;8.38;;;7.64;;
14890;SDS011;7537;48.014;11.590;2023-08-30T02:21:27;8.35;;;6.24;;
14890;SDS011;7537;48.014;11.590;2023-08-30T02:26:54;6.31;;;6.27;;
14890;SDS011;7537;48.014;11.590;2023-08-30T02:32:22;7.79;;;7.67;;
14890;SDS011;7537;48.014;11.590;2023-08-30T02:37:49;6.62;;;6.67;;
14890;SDS011;7537;48.014;11.590;2023-08-30T02:43:16;6.83;;;5.59;;
14890;SDS011;7537;48.014;11.590;2023-08-30T02:48:46;10.46;;;6.39;;
14890;SDS011;7537;48.014;11.590;2023-08-30T02:54:14;4.78;;;4.92;;
14890;SDS011;7537;48.014;11.590;2023-08-30T02:59:45;5.78;;;5.84;;
14890;SDS011;7537;48.014;11.590;2023-08-30T03:05:12;5.66;;;5.81;;
14890;SDS011;7537;48.014;11.590;2023-08-30T03:10:39;5.29;;;5.34;;
14890;SDS011;7537;48.014;11.590;2023-08-30T03:16:13;4.45;;;4.48;;
14890;SDS011;7537;48.014;11.590;2023-08-30T03:21:40;4.75;;;4.89;;
14890;SDS011;7537;48.014;11.590;2023-08-30T03:27:11;5.61;;;4.18;;
14890;SDS011;7537;48.014;11.590;2023-08-30T03:32:38;5.21;;;4.76;;
14890;SDS011;7537;48.014;11.590;2023-08-30T03:38:06;4.46;;;4.14;;
14890;SDS011;7537;48.014;11.590;2023-08-30T03:43:33;4.69;;;4.57;;
14890;SDS011;7537;48.014;11.590;2023-08-30T03:49:01;4.04;;;4.13;;
14890;SDS011;7537;48.014;11.590;2023-08-30T03:54:29;3.81;;;3.82;;
14890;SDS011;7537;48.014;11.590;2023-08-30T04:00:00;3.58;;;3.41;;
14890;SDS011;7537;48.014;11.590;2023-08-30T04:05:28;3.55;;;3.67;;
14890;SDS011;7537;48.014;11.590;2023-08-30T04:11:02;2.57;;;2.73;;
14890;SDS011;7537;48.014;11.590;2023-08-30T04:16:29;2.99;;;2.53;;
14890;SDS011;7537;48.014;11.590;2023-08-30T04:21:58;2.48;;;2.56;;
14890;SDS011;7537;48.014;11.590;2023-08-30T04:27:25;2.71;;;2.81;;
14890;SDS011;7537;48.014;11.590;2023-08-30T04:32:53;2.73;;;2.63;;
14890;SDS011;7537;48.014;11.590;2023-08-30T04:38:20;2.86;;;2.54;;
14890;SDS011;7537;48.014;11.590;2023-08-30T04:43:47;3.64;;;2.51;;
14890;SDS011;7537;48.014;11.590;2023-08-30T04:49:16;3.56;;;2.79;;
14890;SDS011;7537;48.014;11.590;2023-08-30T04:54:44;3.05;;;3.12;;
14890;SDS011;7537;48.014;11.590;2023-08-30T05:00:16;3.15;;;3.29;;
14890;SDS011;7537;48.014;11.590;2023-08-30T05:05:45;2.84;;;2.76;;
14890;SDS011;7537;48.014;11.590;2023-08-30T05:11:13;3.47;;;3.49;;
14890;SDS011;7537;48.014;11.590;2023-08-30T05:16:42;3.61;;;3.70;;
14890;SDS011;7537;48.014;11.590;2023-08-30T05:22:09;4.48;;;3.74;;
14890;SDS011;7537;48.014;11.590;2023-08-30T05:27:37;3.37;;;3.44;;
14890;SDS011;7537;48.014;11.590;2023-08-30T05:33:09;3.30;;;3.42;;
14890;SDS011;7537;48.014;11.590;2023-08-30T05:38:36;3.75;;;3.79;;
14890;SDS011;7537;48.014;11.590;2023-08-30T05:44:05;3.61;;;3.71;;
14890;SDS011;7537;48.014;11.590;2023-08-30T05:49:32;3.38;;;3.59;;
14890;SDS011;7537;48.014;11.590;2023-08-30T05:54:59;3.37;;;3.50;;
14890;SDS011;7537;48.014;11.590;2023-08-30T06:00:30;3.69;;;3.34;;
14890;SDS011;7537;48.014;11.590;2023-08-30T06:05:57;4.71;;;3.96;;
14890;SDS011;7537;48.014;11.590;2023-08-30T06:11:25;4.00;;;4.09;;
14890;SDS011;7537;48.014;11.590;2023-08-30T06:16:55;3.79;;;3.86;;
14890;SDS011;7537;48.014;11.590;2023-08-30T06:22:22;3.99;;;3.93;;
14890;SDS011;7537;48.014;11.590;2023-08-30T06:27:56;3.93;;;3.58;;
14890;SDS011;7537;48.014;11.590;2023-08-30T06:33:23;3.66;;;3.76;;
14890;SDS011;7537;48.014;11.590;2023-08-30T06:38:50;5.80;;;3.87;;
14890;SDS011;7537;48.014;11.590;2023-08-30T06:44:18;3.22;;;3.31;;
14890;SDS011;7537;48.014;11.590;2023-08-30T06:49:45;3.81;;;3.94;;
14890;SDS011;7537;48.014;11.590;2023-08-30T06:55:13;3.45;;;3.58;;
14890;SDS011;7537;48.014;11.590;2023-08-30T07:00:44;4.01;;;4.08;;
14890;SDS011;7537;48.014;11.590;2023-08-30T07:06:11;3.79;;;3.61;;
14890;SDS011;7537;48.014;11.590;2023-08-30T07:11:39;4.36;;;4.42;;
14890;SDS011;7537;48.014;11.590;2023-08-30T07:17:06;4.10;;;3.92;;
14890;SDS011;7537;48.014;11.590;2023-08-30T07:22:35;3.84;;;3.71;;
14890;SDS011;7537;48.014;11.590;2023-08-30T07:28:02;5.08;;;4.93;;
14890;SDS011;7537;48.014;11.590;2023-08-30T07:33:30;3.53;;;3.71;;
14890;SDS011;7537;48.014;11.590;2023-08-30T07:39:23;6.99;;;3.57;;
14890;SDS011;7537;48.014;11.590;2023-08-30T07:44:50;3.70;;;3.78;;
14890;SDS011;7537;48.014;11.590;2023-08-30T07:50:18;3.97;;;4.07;;
14890;SDS011;7537;48.014;11.590;2023-08-30T07:55:49;4.44;;;4.61;;
14890;SDS011;7537;48.014;11.590;2023-08-30T08:01:20;3.41;;;3.61;;
14890;SDS011;7537;48.014;11.590;2023-08-30T08:06:47;5.18;;;4.91;;
14890;SDS011;7537;48.014;11.590;2023-08-30T08:12:15;3.53;;;3.41;;
14890;SDS011;7537;48.014;11.590;2023-08-30T08:17:45;4.39;;;4.51;;
14890;SDS011;7537;48.014;11.590;2023-08-30T08:23:12;3.81;;;3.96;;
14890;SDS011;7537;48.014;11.590;2023-08-30T08:28:40;3.99;;;4.08;;
14890;SDS011;7537;48.014;11.590;2023-08-30T08:34:08;4.21;;;4.06;;
14890;SDS011;7537;48.014;11.590;2023-08-30T08:39:36;3.95;;;3.94;;
14890;SDS011;7537;48.014;11.590;2023-08-30T08:45:04;5.95;;;4.24;;
14890;SDS011;7537;48.014;11.590;2023-08-30T08:50:36;4.04;;;3.82;;
14890;SDS011;7537;48.014;11.590;2023-08-30T08:56:06;4.02;;;4.11;;
14890;SDS011;7537;48.014;11.590;2023-08-30T09:01:44;3.23;;;3.41;;
14890;SDS011;7537;48.014;11.590;2023-08-30T09:07:11;3.31;;;3.36;;
14890;SDS011;7537;48.014;11.590;2023-08-30T09:12:39;3.41;;;3.53;;
14890;SDS011;7537;48.014;11.590;2023-08-30T09:18:15;3.67;;;3.62;;
14890;SDS011;7537;48.014;11.590;2023-08-30T09:23:43;4.82;;;4.61;;
14890;SDS011;7537;48.014;11.590;2023-08-30T09:29:11;3.11;;;3.29;;
14890;SDS011;7537;48.014;11.590;2023-08-30T09:34:46;2.82;;;2.95;;
14890;SDS011;7537;48.014;11.590;2023-08-30T09:40:17;3.19;;;3.28;;
14890;SDS011;7537;48.014;11.590;2023-08-30T09:45:45;4.87;;;3.87;;
14890;SDS011;7537;48.014;11.590;2023-08-30T09:51:13;2.52;;;2.71;;
14890;SDS011;7537;48.014;11.590;2023-08-30T09:56:41;3.14;;;3.17;;
14890;SDS011;7537;48.014;11.590;2023-08-30T10:02:12;4.16;;;3.38;;
14890;SDS011;7537;48.014;11.590;2023-08-30T10:07:39;3.53;;;2.91;;
14890;SDS011;7537;48.014;11.590;2023-08-30T10:13:07;4.31;;;3.05;;
14890;SDS011;7537;48.014;11.590;2023-08-30T10:18:38;3.34;;;3.47;;
14890;SDS011;7537;48.014;11.590;2023-08-30T10:24:10;2.64;;;2.76;;
14890;SDS011;7537;48.014;11.590;2023-08-30T10:29:39;2.29;;;2.42;;
14890;SDS011;7537;48.014;11.590;2023-08-30T10:35:10;2.03;;;2.17;;
14890;SDS011;7537;48.014;11.590;2023-08-30T10:40:45;1.74;;;1.83;;
14890;SDS011;7537;48.014;11.590;2023-08-30T10:46:12;2.67;;;2.08;;
14890;SDS011;7537;48.014;11.590;2023-08-30T10:51:40;2.23;;;1.74;;
14890;SDS011;7537;48.014;11.590;2023-08-30T10:57:13;1.67;;;1.55;;
14890;SDS011;7537;48.014;11.590;2023-08-30T11:02:45;1.29;;;1.45;;
14890;SDS011;7537;48.014;11.590;2023-08-30T11:08:14;2.66;;;1.73;;
14890;SDS011;7537;48.014;11.590;2023-08-30T11:13:42;1.61;;;1.70;;
14890;SDS011;7537;48.014;11.590;2023-08-30T11:19:10;1.59;;;1.62;;
14890;SDS011;7537;48.014;11.590;2023-08-30T11:24:37;1.39;;;1.38;;
14890;SDS011;7537;48.014;11.590;2023-08-30T11:30:06;1.54;;;1.57;;
14890;SDS011;7537;48.014;11.590;2023-08-30T11:35:34;2.04;;;0.98;;
14890;SDS011;7537;48.014;11.590;2023-08-30T11:41:02;0.91;;;0.99;;
14890;SDS011;7537;48.014;11.590;2023-08-30T11:46:30;2.16;;;1.39;;
14890;SDS011;7537;48.014;11.590;2023-08-30T11:51:58;5.81;;;5.37;;
14890;SDS011;7537;48.014;11.590;2023-08-30T11:57:26;3.09;;;1.16;;
14890;SDS011;7537;48.014;11.590;2023-08-30T12:02:57;1.29;;;1.39;;
14890;SDS011;7537;48.014;11.590;2023-08-30T12:08:26;0.94;;;0.87;;
14890;SDS011;7537;48.014;11.590;2023-08-30T12:14:00;4.09;;;1.84;;
14890;SDS011;7537;48.014;11.590;2023-08-30T12:19:29;1.76;;;1.31;;
14890;SDS011;7537;48.014;11.590;2023-08-30T12:24:58;0.81;;;0.77;;
14890;SDS011;7537;48.014;11.590;2023-08-30T12:30:26;1.20;;;0.94;;
14890;SDS011;7537;48.014;11.590;2023-08-30T12:35:54;0.66;;;0.71;;
14890;SDS011;7537;48.014;11.590;2023-08-30T12:41:22;0.78;;;0.82;;
14890;SDS011;7537;48.014;11.590;2023-08-30T12:46:50;1.42;;;0.73;;
14890;SDS011;7537;48.014;11.590;2023-08-30T12:52:17;0.84;;;0.92;;
14890;SDS011;7537;48.014;11.590;2023-08-30T12:57:45;1.22;;;0.91;;
14890;SDS011;7537;48.014;11.590;2023-08-30T13:03:25;0.67;;;0.74;;
14890;SDS011;7537;48.014;11.590;2023-08-30T13:08:53;0.74;;;0.82;;
14890;SDS011;7537;48.014;11.590;2023-08-30T13:14:21;0.63;;;0.70;;
14890;SDS011;7537;48.014;11.590;2023-08-30T13:19:48;1.22;;;0.66;;
14890;SDS011;7537;48.014;11.590;2023-08-30T13:25:16;0.72;;;0.64;;
14890;SDS011;7537;48.014;11.590;2023-08-30T13:30:46;1.63;;;1.59;;
14890;SDS011;7537;48.014;11.590;2023-08-30T13:36:14;1.02;;;0.69;;
14890;SDS011;7537;48.014;11.590;2023-08-30T13:41:42;1.82;;;0.94;;
14890;SDS011;7537;48.014;11.590;2023-08-30T13:47:09;0.99;;;1.06;;
14890;SDS011;7537;48.014;11.590;2023-08-30T13:52:37;2.72;;;2.72;;
14890;SDS011;7537;48.014;11.590;2023-08-30T13:58:04;0.78;;;0.94;;
14890;SDS011;7537;48.014;11.590;2023-08-30T14:03:35;0.86;;;0.89;;
14890;SDS011;7537;48.014;11.590;2023-08-30T14:09:03;2.79;;;2.29;;
14890;SDS011;7537;48.014;11.590;2023-08-30T14:14:32;0.90;;;0.98;;
14890;SDS011;7537;48.014;11.590;2023-08-30T14:20:00;1.17;;;1.23;;
14890;SDS011;7537;48.014;11.590;2023-08-30T14:25:30;1.02;;;1.11;;
14890;SDS011;7537;48.014;11.590;2023-08-30T14:30:58;1.46;;;1.57;;
14890;SDS011;7537;48.014;11.590;2023-08-30T14:36:26;1.54;;;1.39;;
14890;SDS011;7537;48.014;11.590;2023-08-30T14:41:53;1.68;;;1.53;;
14890;SDS011;7537;48.014;11.590;2023-08-30T14:47:20;1.49;;;1.57;;
14890;SDS011;7537;48.014;11.590;2023-08-30T14:52:48;1.99;;;1.68;;
14890;SDS011;7537;48.014;11.590;2023-08-30T14:58:15;1.76;;;1.82;;
14890;SDS011;7537;48.014;11.590;2023-08-30T15:03:52;1.51;;;1.59;;
14890;SDS011;7537;48.014;11.590;2023-08-30T15:09:21;0.94;;;1.05;;
14890;SDS011;7537;48.014;11.590;2023-08-30T15:14:49;1.02;;;1.10;;
14890;SDS011;7537;48.014;11.590;2023-08-30T15:20:37;3.49;;;1.56;;
14890;SDS011;7537;48.014;11.590;2023-08-30T15:26:04;1.82;;;1.60;;
14890;SDS011;7537;48.014;11.590;2023-08-30T15:31:32;4.67;;;1.80;;
14890;SDS011;7537;48.014;11.590;2023-08-30T15:36:59;2.53;;;1.54;;
14890;SDS011;7537;48.014;11.590;2023-08-30T15:42:27;1.91;;;1.99;;
14890;SDS011;7537;48.014;11.590;2023-08-30T15:47:54;1.36;;;1.34;;
14890;SDS011;7537;48.014;11.590;2023-08-30T15:53:30;1.67;;;1.71;;
14890;SDS011;7537;48.014;11.590;2023-08-30T15:58:58;1.40;;;1.51;;
14890;SDS011;7537;48.014;11.590;2023-08-30T16:04:29;0.98;;;1.08;;
14890;SDS011;7537;48.014;11.590;2023-08-30T16:09:56;2.03;;;1.42;;
14890;SDS011;7537;48.014;11.590;2023-08-30T16:15:24;2.32;;;1.09;;
14890;SDS011;7537;48.014;11.590;2023-08-30T16:20:51;1.07;;;1.14;;
14890;SDS011;7537;48.014;11.590;2023-08-30T16:26:18;1.57;;;1.64;;
14890;SDS011;7537;48.014;11.590;2023-08-30T16:31:46;1.47;;;1.24;;
14890;SDS011;7537;48.014;11.590;2023-08-30T16:37:13;1.71;;;1.36;;
14890;SDS011;7537;48.014;11.590;2023-08-30T16:42:41;1.93;;;2.02;;
14890;SDS011;7537;48.014;11.590;2023-08-30T16:48:08;1.40;;;1.47;;
14890;SDS011;7537;48.014;11.590;2023-08-30T16:53:38;3.34;;;1.74;;
14890;SDS011;7537;48.014;11.590;2023-08-30T16:59:05;1.31;;;1.44;;
14890;SDS011;7537;48.014;11.590;2023-08-30T17:04:41;2.17;;;2.30;;
14890;SDS011;7537;48.014;11.590;2023-08-30T17:10:10;2.03;;;2.11;;
14890;SDS011;7537;48.014;11.590;2023-08-30T17:15:38;2.30;;;2.08;;
14890;SDS011;7537;48.014;11.590;2023-08-30T17:21:06;1.64;;;1.60;;
14890;SDS011;7537;48.014;11.590;2023-08-30T17:26:33;1.79;;;1.84;;
14890;SDS011;7537;48.014;11.590;2023-08-30T17:32:01;2.30;;;2.19;;
14890;SDS011;7537;48.014;11.590;2023-08-30T17:37:32;1.41;;;1.51;;
14890;SDS011;7537;48.014;11.590;2023-08-30T17:43:05;1.88;;;1.96;;
14890;SDS011;7537;48.014;11.590;2023-08-30T17:48:33;1.74;;;1.87;;
14890;SDS011;7537;48.014;11.590;2023-08-30T17:54:00;2.04;;;2.14;;
14890;SDS011;7537;48.014;11.590;2023-08-30T17:59:29;2.35;;;2.44;;
14890;SDS011;7537;48.014;11.590;2023-08-30T18:04:59;2.54;;;2.64;;
14890;SDS011;7537;48.014;11.590;2023-08-30T18:10:33;2.64;;;2.71;;
14890;SDS011;7537;48.014;11.590;2023-08-30T18:16:00;1.99;;;2.14;;
14890;SDS011;7537;48.014;11.590;2023-08-30T18:21:34;2.28;;;2.36;;
14890;SDS011;7537;48.014;11.590;2023-08-30T18:27:01;2.29;;;2.09;;
14890;SDS011;7537;48.014;11.590;2023-08-30T18:32:33;4.07;;;2.08;;
14890;SDS011;7537;48.014;11.590;2023-08-30T18:38:02;2.21;;;2.26;;
14890;SDS011;7537;48.014;11.590;2023-08-30T18:43:35;2.24;;;2.41;;
14890;SDS011;7537;48.014;11.590;2023-08-30T18:49:03;4.34;;;2.64;;
14890;SDS011;7537;48.014;11.590;2023-08-30T18:54:33;2.51;;;2.56;;
14890;SDS011;7537;48.014;11.590;2023-08-30T19:00:00;3.63;;;2.18;;
14890;SDS011;7537;48.014;11.590;2023-08-30T19:05:31;2.38;;;2.48;;
14890;SDS011;7537;48.014;11.590;2023-08-30T19:10:58;2.68;;;2.56;;
14890;SDS011;7537;48.014;11.590;2023-08-30T19:16:26;2.11;;;2.25;;
14890;SDS011;7537;48.014;11.590;2023-08-30T19:21:59;2.31;;;2.22;;
14890;SDS011;7537;48.014;11.590;2023-08-30T19:27:26;1.84;;;1.91;;
14890;SDS011;7537;48.014;11.590;2023-08-30T19:32:54;2.71;;;2.44;;
14890;SDS011;7537;48.014;11.590;2023-08-30T19:38:21;1.73;;;1.85;;
14890;SDS011;7537;48.014;11.590;2023-08-30T19:43:49;1.76;;;1.89;;
14890;SDS011;7537;48.014;11.590;2023-08-30T19:49:19;2.16;;;2.24;;
14890;SDS011;7537;48.014;11.590;2023-08-30T19:54:47;2.04;;;2.16;;
14890;SDS011;7537;48.014;11.590;2023-08-30T20:00:14;2.08;;;2.21;;
14890;SDS011;7537;48.014;11.590;2023-08-30T20:05:49;2.33;;;2.39;;
14890;SDS011;7537;48.014;11.590;2023-08-30T20:11:17;5.75;;;2.29;;
14890;SDS011;7537;48.014;11.590;2023-08-30T20:16:44;2.29;;;2.39;;
14890;SDS011;7537;48.014;11.590;2023-08-30T20:22:11;2.52;;;2.64;;
14890;SDS011;7537;48.014;11.590;2023-08-30T20:27:39;3.00;;;2.19;;
14890;SDS011;7537;48.014;11.590;2023-08-30T20:33:06;2.52;;;2.39;;
14890;SDS011;7537;48.014;11.590;2023-08-30T20:38:35;7.26;;;2.80;;
14890;SDS011;7537;48.014;11.590;2023-08-30T20:44:02;2.51;;;2.59;;
14890;SDS011;7537;48.014;11.590;2023-08-30T20:49:30;3.19;;;2.65;;
14890;SDS011;7537;48.014;11.590;2023-08-30T20:54:57;2.60;;;2.78;;
14890;SDS011;7537;48.014;11.590;2023-08-30T21:00:26;2.44;;;2.59;;
14890;SDS011;7537;48.014;11.590;2023-08-30T21:05:57;3.05;;;3.08;;
14890;SDS011;7537;48.014;11.590;2023-08-30T21:11:27;2.32;;;2.44;;
14890;SDS011;7537;48.014;11.590;2023-08-30T21:16:54;2.29;;;2.39;;
14890;SDS011;7537;48.014;11.590;2023-08-30T21:22:22;2.84;;;2.79;;
14890;SDS011;7537;48.014;11.590;2023-08-30T21:27:50;2.26;;;2.33;;
14890;SDS011;7537;48.014;11.590;2023-08-30T21:33:17;1.97;;;2.07;;
14890;SDS011;7537;48.014;11.590;2023-08-30T21:38:45;2.25;;;2.36;;
14890;SDS011;7537;48.014;11.590;2023-08-30T21:44:12;2.68;;;2.77;;
14890;SDS011;7537;48.014;11.590;2023-08-30T21:49:39;2.61;;;2.75;;
14890;SDS011;7537;48.014;11.590;2023-08-30T21:55:07;1.82;;;1.94;;
14890;SDS011;7537;48.014;11.590;2023-08-30T22:00:35;2.38;;;2.39;;
14890;SDS011;7537;48.014;11.590;2023-08-30T22:06:06;2.72;;;2.66;;
14890;SDS011;7537;48.014;11.590;2023-08-30T22:11:34;3.89;;;4.04;;
14890;SDS011;7537;48.014;11.590;2023-08-30T22:17:01;1.81;;;1.97;;
14890;SDS011;7537;48.014;11.590;2023-08-30T22:22:29;2.41;;;2.41;;
14890;SDS011;7537;48.014;11.590;2023-08-30T22:27:56;2.08;;;2.04;;
14890;SDS011;7537;48.014;11.590;2023-08-30T22:33:28;3.34;;;2.62;;
14890;SDS011;7537;48.014;11.590;2023-08-30T22:38:56;2.11;;;2.25;;
14890;SDS011;7537;48.014;11.590;2023-08-30T22:44:23;2.60;;;2.49;;
14890;SDS011;7537;48.014;11.590;2023-08-30T22:49:51;4.46;;;2.34;;
14890;SDS011;7537;48.014;11.590;2023-08-30T22:55:20;1.74;;;1.84;;
14890;SDS011;7537;48.014;11.590;2023-08-30T23:00:50;2.51;;;2.19;;
14890;SDS011;7537;48.014;11.590;2023-08-30T23:06:21;3.58;;;2.55;;
14890;SDS011;7537;48.014;11.590;2023-08-30T23:11:49;1.91;;;2.04;;
14890;SDS011;7537;48.014;11.590;2023-08-30T23:17:18;2.14;;;2.23;;
14890;SDS011;7537;48.014;11.590;2023-08-30T23:22:46;1.79;;;1.92;;
14890;SDS011;7537;48.014;11.590;2023-08-30T23:28:14;1.38;;;1.51;;
14890;SDS011;7537;48.014;11.590;2023-08-30T23:33:41;1.71;;;1.89;;
14890;SDS011;7537;48.014;11.590;2023-08-30T23:39:09;2.47;;;1.94;;
14890;SDS011;7537;48.014;11.590;2023-08-30T23:44:39;1.54;;;1.69;;
14890;SDS011;7537;48.014;11.590;2023-08-30T23:50:08;5.81;;;1.79;;
14890;SDS011;7537;48.014;11.590;2023-08-30T23:55:36;3.41;;;1.96;;
